sensor_id;sensor_type;location;lat;lon;timestamp;P1;durP1;ratioP1;P2;durP2;ratioP2
29500;SDS011;16450;50.288;10.966;2024-03-22T00:00:50;8.37;;;5.13;;
29500;SDS011;16450;50.288;10.966;2024-03-22T00:03:51;9.33;;;5.10;;
29500;SDS011;16450;50.288;10.966;2024-03-22T00:06:51;6.93;;;4.70;;
29500;SDS011;16450;50.288;10.966;2024-03-22T00:09:52;7.47;;;5.00;;
29500;SDS011;16450;50.288;10.966;2024-03-22T00:12:53;7.93;;;4.77;;
29500;SDS011;16450;50.288;10.966;2024-03-22T00:15:54;8.80;;;5.33;;
29500;SDS011;16450;50.288;10.966;2024-03-22T00:18:55;7.03;;;4.63;;
29500;SDS011;16450;50.288;10.966;2024-03-22T00:21:56;8.60;;;5.07;;
29500;SDS011;16450;50.288;10.966;2024-03-22T00:24:57;7.77;;;5.33;;
29500;SDS011;16450;50.288;10.966;2024-03-22T00:27:58;10.93;;;5.23;;
29500;SDS011;16450;50.288;10.966;2024-03-22T00:30:59;8.30;;;5.43;;
29500;SDS011;16450;50.288;10.966;2024-03-22T00:34:00;9.23;;;5.50;;
29500;SDS011;16450;50.288;10.966;2024-03-22T00:37:00;10.77;;;5.47;;
29500;SDS011;16450;50.288;10.966;2024-03-22T00:40:01;9.07;;;5.77;;
29500;SDS011;16450;50.288;10.966;2024-03-22T00:43:02;10.37;;;5.37;;
29500;SDS011;16450;50.288;10.966;2024-03-22T00:46:03;10.53;;;5.80;;
29500;SDS011;16450;50.288;10.966;2024-03-22T00:49:04;7.50;;;5.40;;
29500;SDS011;16450;50.288;10.966;2024-03-22T00:52:05;8.90;;;5.87;;
29500;SDS011;16450;50.288;10.966;2024-03-22T00:55:06;9.63;;;5.30;;
29500;SDS011;16450;50.288;10.966;2024-03-22T00:58:07;9.20;;;5.90;;
29500;SDS011;16450;50.288;10.966;2024-03-22T01:01:08;11.23;;;5.77;;
29500;SDS011;16450;50.288;10.966;2024-03-22T01:04:08;11.13;;;6.03;;
29500;SDS011;16450;50.288;10.966;2024-03-22T01:07:09;7.70;;;5.30;;
29500;SDS011;16450;50.288;10.966;2024-03-22T01:10:10;11.20;;;5.47;;
29500;SDS011;16450;50.288;10.966;2024-03-22T01:13:11;9.67;;;5.40;;
29500;SDS011;16450;50.288;10.966;2024-03-22T01:16:12;10.17;;;5.53;;
29500;SDS011;16450;50.288;10.966;2024-03-22T01:19:13;9.90;;;5.80;;
29500;SDS011;16450;50.288;10.966;2024-03-22T01:22:14;9.83;;;5.67;;
29500;SDS011;16450;50.288;10.966;2024-03-22T01:25:15;7.43;;;5.20;;
29500;SDS011;16450;50.288;10.966;2024-03-22T01:28:16;10.93;;;5.97;;
29500;SDS011;16450;50.288;10.966;2024-03-22T01:31:17;9.27;;;5.70;;
29500;SDS011;16450;50.288;10.966;2024-03-22T01:34:18;6.77;;;4.77;;
29500;SDS011;16450;50.288;10.966;2024-03-22T01:37:18;8.03;;;5.07;;
29500;SDS011;16450;50.288;10.966;2024-03-22T01:40:20;6.70;;;4.93;;
29500;SDS011;16450;50.288;10.966;2024-03-22T01:43:20;8.17;;;5.63;;
29500;SDS011;16450;50.288;10.966;2024-03-22T01:46:21;10.03;;;5.77;;
29500;SDS011;16450;50.288;10.966;2024-03-22T01:49:23;10.43;;;5.57;;
29500;SDS011;16450;50.288;10.966;2024-03-22T01:52:25;7.87;;;5.30;;
29500;SDS011;16450;50.288;10.966;2024-03-22T01:55:27;10.27;;;5.60;;
29500;SDS011;16450;50.288;10.966;2024-03-22T01:58:29;8.73;;;5.57;;
29500;SDS011;16450;50.288;10.966;2024-03-22T02:01:30;9.23;;;5.60;;
29500;SDS011;16450;50.288;10.966;2024-03-22T02:04:31;8.67;;;5.07;;
29500;SDS011;16450;50.288;10.966;2024-03-22T02:07:32;12.33;;;5.57;;
29500;SDS011;16450;50.288;10.966;2024-03-22T02:10:33;9.07;;;5.03;;
29500;SDS011;16450;50.288;10.966;2024-03-22T02:13:34;7.33;;;4.73;;
29500;SDS011;16450;50.288;10.966;2024-03-22T02:16:35;8.83;;;5.03;;
29500;SDS011;16450;50.288;10.966;2024-03-22T02:19:36;9.93;;;5.03;;
29500;SDS011;16450;50.288;10.966;2024-03-22T02:22:36;8.70;;;4.93;;
29500;SDS011;16450;50.288;10.966;2024-03-22T02:25:38;9.63;;;5.57;;
29500;SDS011;16450;50.288;10.966;2024-03-22T02:28:38;8.70;;;5.07;;
29500;SDS011;16450;50.288;10.966;2024-03-22T02:31:39;8.63;;;4.77;;
29500;SDS011;16450;50.288;10.966;2024-03-22T02:34:40;12.73;;;5.57;;
29500;SDS011;16450;50.288;10.966;2024-03-22T02:37:41;9.57;;;5.30;;
29500;SDS011;16450;50.288;10.966;2024-03-22T02:40:45;9.10;;;5.40;;
29500;SDS011;16450;50.288;10.966;2024-03-22T02:43:46;9.17;;;5.17;;
29500;SDS011;16450;50.288;10.966;2024-03-22T02:46:47;8.70;;;4.60;;
29500;SDS011;16450;50.288;10.966;2024-03-22T02:49:48;6.73;;;4.60;;
29500;SDS011;16450;50.288;10.966;2024-03-22T02:52:49;7.97;;;4.50;;
29500;SDS011;16450;50.288;10.966;2024-03-22T02:55:50;11.70;;;5.10;;
29500;SDS011;16450;50.288;10.966;2024-03-22T02:58:51;7.80;;;4.53;;
29500;SDS011;16450;50.288;10.966;2024-03-22T03:01:52;7.40;;;4.40;;
29500;SDS011;16450;50.288;10.966;2024-03-22T03:04:53;7.40;;;4.90;;
29500;SDS011;16450;50.288;10.966;2024-03-22T03:07:54;7.67;;;4.40;;
29500;SDS011;16450;50.288;10.966;2024-03-22T03:10:55;8.67;;;4.50;;
29500;SDS011;16450;50.288;10.966;2024-03-22T03:13:57;7.13;;;4.77;;
29500;SDS011;16450;50.288;10.966;2024-03-22T03:16:57;8.63;;;4.67;;
29500;SDS011;16450;50.288;10.966;2024-03-22T03:19:58;7.00;;;4.60;;
29500;SDS011;16450;50.288;10.966;2024-03-22T03:22:59;8.33;;;4.87;;
29500;SDS011;16450;50.288;10.966;2024-03-22T03:26:01;8.33;;;4.80;;
29500;SDS011;16450;50.288;10.966;2024-03-22T03:29:02;7.47;;;4.50;;
29500;SDS011;16450;50.288;10.966;2024-03-22T03:32:03;9.50;;;5.07;;
29500;SDS011;16450;50.288;10.966;2024-03-22T03:35:04;6.83;;;4.23;;
29500;SDS011;16450;50.288;10.966;2024-03-22T03:38:05;9.20;;;4.57;;
29500;SDS011;16450;50.288;10.966;2024-03-22T03:41:07;9.30;;;4.43;;
29500;SDS011;16450;50.288;10.966;2024-03-22T03:44:08;8.03;;;4.87;;
29500;SDS011;16450;50.288;10.966;2024-03-22T03:47:08;8.87;;;4.70;;
29500;SDS011;16450;50.288;10.966;2024-03-22T03:50:09;9.40;;;4.77;;
29500;SDS011;16450;50.288;10.966;2024-03-22T03:53:10;7.07;;;4.53;;
29500;SDS011;16450;50.288;10.966;2024-03-22T03:56:11;8.10;;;4.67;;
29500;SDS011;16450;50.288;10.966;2024-03-22T03:59:12;7.33;;;4.40;;
29500;SDS011;16450;50.288;10.966;2024-03-22T04:02:13;9.50;;;4.70;;
29500;SDS011;16450;50.288;10.966;2024-03-22T04:05:14;6.90;;;4.30;;
29500;SDS011;16450;50.288;10.966;2024-03-22T04:08:15;7.67;;;4.80;;
29500;SDS011;16450;50.288;10.966;2024-03-22T04:11:16;10.53;;;4.70;;
29500;SDS011;16450;50.288;10.966;2024-03-22T04:14:17;8.40;;;4.40;;
29500;SDS011;16450;50.288;10.966;2024-03-22T04:17:18;7.47;;;4.57;;
29500;SDS011;16450;50.288;10.966;2024-03-22T04:20:18;6.37;;;4.30;;
29500;SDS011;16450;50.288;10.966;2024-03-22T04:23:19;6.90;;;4.37;;
29500;SDS011;16450;50.288;10.966;2024-03-22T04:26:20;5.37;;;3.97;;
29500;SDS011;16450;50.288;10.966;2024-03-22T04:29:21;7.00;;;4.37;;
29500;SDS011;16450;50.288;10.966;2024-03-22T04:32:23;5.53;;;4.00;;
29500;SDS011;16450;50.288;10.966;2024-03-22T04:35:24;7.27;;;4.50;;
29500;SDS011;16450;50.288;10.966;2024-03-22T04:38:25;6.87;;;4.43;;
29500;SDS011;16450;50.288;10.966;2024-03-22T04:41:27;8.10;;;4.80;;
29500;SDS011;16450;50.288;10.966;2024-03-22T04:44:27;7.63;;;4.20;;
29500;SDS011;16450;50.288;10.966;2024-03-22T04:47:28;8.67;;;4.77;;
29500;SDS011;16450;50.288;10.966;2024-03-22T04:50:29;8.97;;;5.43;;
29500;SDS011;16450;50.288;10.966;2024-03-22T04:53:30;10.13;;;4.80;;
29500;SDS011;16450;50.288;10.966;2024-03-22T04:56:32;8.90;;;5.70;;
29500;SDS011;16450;50.288;10.966;2024-03-22T04:59:32;9.43;;;5.90;;
29500;SDS011;16450;50.288;10.966;2024-03-22T05:02:33;9.03;;;5.87;;
29500;SDS011;16450;50.288;10.966;2024-03-22T05:05:35;9.23;;;5.47;;
29500;SDS011;16450;50.288;10.966;2024-03-22T05:08:36;10.13;;;5.50;;
29500;SDS011;16450;50.288;10.966;2024-03-22T05:11:37;10.63;;;6.53;;
29500;SDS011;16450;50.288;10.966;2024-03-22T05:14:38;10.13;;;5.60;;
29500;SDS011;16450;50.288;10.966;2024-03-22T05:17:39;8.40;;;5.30;;
29500;SDS011;16450;50.288;10.966;2024-03-22T05:20:41;12.47;;;5.57;;
29500;SDS011;16450;50.288;10.966;2024-03-22T05:23:42;10.80;;;5.10;;
29500;SDS011;16450;50.288;10.966;2024-03-22T05:26:43;7.83;;;5.07;;
29500;SDS011;16450;50.288;10.966;2024-03-22T05:29:44;10.13;;;5.13;;
29500;SDS011;16450;50.288;10.966;2024-03-22T05:32:45;8.43;;;5.50;;
29500;SDS011;16450;50.288;10.966;2024-03-22T05:35:46;10.80;;;6.07;;
29500;SDS011;16450;50.288;10.966;2024-03-22T05:38:47;8.37;;;5.90;;
29500;SDS011;16450;50.288;10.966;2024-03-22T05:41:48;12.13;;;6.27;;
29500;SDS011;16450;50.288;10.966;2024-03-22T05:44:49;55.80;;;24.60;;
29500;SDS011;16450;50.288;10.966;2024-03-22T05:47:49;40.20;;;17.50;;
29500;SDS011;16450;50.288;10.966;2024-03-22T05:50:51;80.00;;;33.80;;
29500;SDS011;16450;50.288;10.966;2024-03-22T05:53:52;41.03;;;20.93;;
29500;SDS011;16450;50.288;10.966;2024-03-22T05:56:55;15.30;;;9.43;;
29500;SDS011;16450;50.288;10.966;2024-03-22T05:59:56;11.43;;;7.00;;
29500;SDS011;16450;50.288;10.966;2024-03-22T06:02:57;11.33;;;6.50;;
29500;SDS011;16450;50.288;10.966;2024-03-22T06:05:59;11.67;;;6.23;;
29500;SDS011;16450;50.288;10.966;2024-03-22T06:09:00;10.43;;;5.70;;
29500;SDS011;16450;50.288;10.966;2024-03-22T06:12:04;11.67;;;5.93;;
29500;SDS011;16450;50.288;10.966;2024-03-22T06:15:06;16.07;;;6.83;;
29500;SDS011;16450;50.288;10.966;2024-03-22T06:18:07;9.50;;;5.93;;
29500;SDS011;16450;50.288;10.966;2024-03-22T06:21:08;10.57;;;6.13;;
29500;SDS011;16450;50.288;10.966;2024-03-22T06:24:08;12.20;;;6.97;;
29500;SDS011;16450;50.288;10.966;2024-03-22T06:27:09;10.10;;;6.30;;
29500;SDS011;16450;50.288;10.966;2024-03-22T06:30:10;10.00;;;5.83;;
29500;SDS011;16450;50.288;10.966;2024-03-22T06:33:11;10.40;;;6.17;;
29500;SDS011;16450;50.288;10.966;2024-03-22T06:36:12;11.40;;;6.50;;
29500;SDS011;16450;50.288;10.966;2024-03-22T06:39:14;10.73;;;6.20;;
29500;SDS011;16450;50.288;10.966;2024-03-22T06:42:15;10.80;;;6.27;;
29500;SDS011;16450;50.288;10.966;2024-03-22T06:45:16;11.90;;;6.27;;
29500;SDS011;16450;50.288;10.966;2024-03-22T06:48:17;13.73;;;7.50;;
29500;SDS011;16450;50.288;10.966;2024-03-22T06:51:18;11.20;;;6.17;;
29500;SDS011;16450;50.288;10.966;2024-03-22T06:54:19;12.37;;;7.90;;
29500;SDS011;16450;50.288;10.966;2024-03-22T06:57:19;15.07;;;9.03;;
29500;SDS011;16450;50.288;10.966;2024-03-22T07:00:20;11.90;;;7.60;;
29500;SDS011;16450;50.288;10.966;2024-03-22T07:03:21;16.20;;;8.93;;
29500;SDS011;16450;50.288;10.966;2024-03-22T07:06:22;19.90;;;11.53;;
29500;SDS011;16450;50.288;10.966;2024-03-22T07:09:23;24.37;;;16.07;;
29500;SDS011;16450;50.288;10.966;2024-03-22T07:12:24;17.67;;;10.93;;
29500;SDS011;16450;50.288;10.966;2024-03-22T07:15:25;17.40;;;10.27;;
29500;SDS011;16450;50.288;10.966;2024-03-22T07:18:26;14.57;;;9.63;;
29500;SDS011;16450;50.288;10.966;2024-03-22T07:21:27;13.97;;;8.47;;
29500;SDS011;16450;50.288;10.966;2024-03-22T07:24:27;13.10;;;8.00;;
29500;SDS011;16450;50.288;10.966;2024-03-22T07:27:31;13.77;;;8.30;;
29500;SDS011;16450;50.288;10.966;2024-03-22T07:30:32;15.97;;;9.60;;
29500;SDS011;16450;50.288;10.966;2024-03-22T07:33:33;14.00;;;8.60;;
29500;SDS011;16450;50.288;10.966;2024-03-22T07:36:37;17.90;;;9.40;;
29500;SDS011;16450;50.288;10.966;2024-03-22T07:39:38;16.83;;;9.20;;
29500;SDS011;16450;50.288;10.966;2024-03-22T07:42:39;18.07;;;9.80;;
29500;SDS011;16450;50.288;10.966;2024-03-22T07:45:40;14.33;;;9.37;;
29500;SDS011;16450;50.288;10.966;2024-03-22T07:48:41;17.70;;;10.43;;
29500;SDS011;16450;50.288;10.966;2024-03-22T07:51:42;20.50;;;11.30;;
29500;SDS011;16450;50.288;10.966;2024-03-22T07:54:43;19.03;;;12.33;;
29500;SDS011;16450;50.288;10.966;2024-03-22T07:57:44;18.37;;;11.13;;
29500;SDS011;16450;50.288;10.966;2024-03-22T08:00:45;18.70;;;12.00;;
29500;SDS011;16450;50.288;10.966;2024-03-22T08:03:46;20.50;;;11.60;;
29500;SDS011;16450;50.288;10.966;2024-03-22T08:06:46;20.63;;;11.10;;
29500;SDS011;16450;50.288;10.966;2024-03-22T08:09:47;20.37;;;11.70;;
29500;SDS011;16450;50.288;10.966;2024-03-22T08:12:48;21.77;;;12.47;;
29500;SDS011;16450;50.288;10.966;2024-03-22T08:15:49;20.10;;;10.97;;
29500;SDS011;16450;50.288;10.966;2024-03-22T08:18:50;23.00;;;14.00;;
29500;SDS011;16450;50.288;10.966;2024-03-22T08:21:51;23.37;;;11.90;;
29500;SDS011;16450;50.288;10.966;2024-03-22T08:24:52;23.13;;;13.67;;
29500;SDS011;16450;50.288;10.966;2024-03-22T08:27:56;21.67;;;12.37;;
29500;SDS011;16450;50.288;10.966;2024-03-22T08:30:58;19.87;;;11.97;;
29500;SDS011;16450;50.288;10.966;2024-03-22T08:34:03;21.43;;;12.23;;
29500;SDS011;16450;50.288;10.966;2024-03-22T08:37:05;18.07;;;10.80;;
29500;SDS011;16450;50.288;10.966;2024-03-22T08:40:07;19.00;;;11.47;;
29500;SDS011;16450;50.288;10.966;2024-03-22T08:43:08;20.60;;;11.57;;
29500;SDS011;16450;50.288;10.966;2024-03-22T08:46:09;21.50;;;12.40;;
29500;SDS011;16450;50.288;10.966;2024-03-22T08:49:10;21.20;;;12.27;;
29500;SDS011;16450;50.288;10.966;2024-03-22T08:52:12;23.27;;;11.60;;
29500;SDS011;16450;50.288;10.966;2024-03-22T08:55:13;22.77;;;12.93;;
29500;SDS011;16450;50.288;10.966;2024-03-22T08:58:14;21.83;;;12.60;;
29500;SDS011;16450;50.288;10.966;2024-03-22T09:01:15;23.97;;;12.70;;
29500;SDS011;16450;50.288;10.966;2024-03-22T09:04:16;21.27;;;12.67;;
29500;SDS011;16450;50.288;10.966;2024-03-22T09:07:17;21.73;;;12.40;;
29500;SDS011;16450;50.288;10.966;2024-03-22T09:10:18;21.13;;;12.60;;
29500;SDS011;16450;50.288;10.966;2024-03-22T09:13:19;23.70;;;13.47;;
29500;SDS011;16450;50.288;10.966;2024-03-22T09:16:20;26.43;;;14.20;;
29500;SDS011;16450;50.288;10.966;2024-03-22T09:19:21;26.30;;;14.23;;
29500;SDS011;16450;50.288;10.966;2024-03-22T09:22:22;25.10;;;14.43;;
29500;SDS011;16450;50.288;10.966;2024-03-22T09:25:23;29.80;;;14.73;;
29500;SDS011;16450;50.288;10.966;2024-03-22T09:28:24;25.70;;;14.93;;
29500;SDS011;16450;50.288;10.966;2024-03-22T09:31:26;31.43;;;16.60;;
29500;SDS011;16450;50.288;10.966;2024-03-22T09:34:27;24.90;;;15.43;;
29500;SDS011;16450;50.288;10.966;2024-03-22T09:37:29;27.60;;;15.87;;
29500;SDS011;16450;50.288;10.966;2024-03-22T09:40:30;27.30;;;16.57;;
29500;SDS011;16450;50.288;10.966;2024-03-22T09:43:31;26.93;;;16.27;;
29500;SDS011;16450;50.288;10.966;2024-03-22T09:46:32;26.97;;;15.70;;
29500;SDS011;16450;50.288;10.966;2024-03-22T09:49:34;32.07;;;16.60;;
29500;SDS011;16450;50.288;10.966;2024-03-22T09:52:37;26.57;;;15.40;;
29500;SDS011;16450;50.288;10.966;2024-03-22T09:55:38;27.70;;;16.07;;
29500;SDS011;16450;50.288;10.966;2024-03-22T09:58:43;27.30;;;15.87;;
29500;SDS011;16450;50.288;10.966;2024-03-22T10:01:45;27.93;;;15.30;;
29500;SDS011;16450;50.288;10.966;2024-03-22T10:04:46;25.77;;;15.20;;
29500;SDS011;16450;50.288;10.966;2024-03-22T10:07:47;26.80;;;15.90;;
29500;SDS011;16450;50.288;10.966;2024-03-22T10:10:48;25.33;;;15.20;;
29500;SDS011;16450;50.288;10.966;2024-03-22T10:13:49;26.67;;;15.17;;
29500;SDS011;16450;50.288;10.966;2024-03-22T10:16:51;28.37;;;16.43;;
29500;SDS011;16450;50.288;10.966;2024-03-22T10:19:55;26.43;;;15.80;;
29500;SDS011;16450;50.288;10.966;2024-03-22T10:22:57;25.37;;;14.33;;
29500;SDS011;16450;50.288;10.966;2024-03-22T10:25:59;21.70;;;13.00;;
29500;SDS011;16450;50.288;10.966;2024-03-22T10:29:00;20.93;;;12.03;;
29500;SDS011;16450;50.288;10.966;2024-03-22T10:32:05;20.80;;;12.30;;
29500;SDS011;16450;50.288;10.966;2024-03-22T10:35:08;20.83;;;11.40;;
29500;SDS011;16450;50.288;10.966;2024-03-22T10:38:13;21.83;;;12.47;;
29500;SDS011;16450;50.288;10.966;2024-03-22T10:41:16;21.77;;;12.40;;
29500;SDS011;16450;50.288;10.966;2024-03-22T10:44:17;20.83;;;11.60;;
29500;SDS011;16450;50.288;10.966;2024-03-22T10:47:18;18.37;;;11.30;;
29500;SDS011;16450;50.288;10.966;2024-03-22T10:50:22;20.77;;;11.47;;
29500;SDS011;16450;50.288;10.966;2024-03-22T10:53:26;20.60;;;10.67;;
29500;SDS011;16450;50.288;10.966;2024-03-22T10:56:29;15.47;;;10.23;;
29500;SDS011;16450;50.288;10.966;2024-03-22T10:59:34;18.53;;;10.43;;
29500;SDS011;16450;50.288;10.966;2024-03-22T11:02:35;17.37;;;10.60;;
29500;SDS011;16450;50.288;10.966;2024-03-22T11:05:47;19.13;;;10.87;;
29500;SDS011;16450;50.288;10.966;2024-03-22T11:08:51;20.40;;;11.00;;
29500;SDS011;16450;50.288;10.966;2024-03-22T11:11:53;20.20;;;11.10;;
29500;SDS011;16450;50.288;10.966;2024-03-22T11:14:55;16.83;;;9.37;;
29500;SDS011;16450;50.288;10.966;2024-03-22T11:17:56;16.30;;;9.97;;
29500;SDS011;16450;50.288;10.966;2024-03-22T11:20:58;16.07;;;10.13;;
29500;SDS011;16450;50.288;10.966;2024-03-22T11:24:00;15.53;;;9.50;;
29500;SDS011;16450;50.288;10.966;2024-03-22T11:27:01;15.07;;;9.00;;
29500;SDS011;16450;50.288;10.966;2024-03-22T11:30:02;14.03;;;9.33;;
29500;SDS011;16450;50.288;10.966;2024-03-22T11:33:04;15.40;;;9.03;;
29500;SDS011;16450;50.288;10.966;2024-03-22T11:36:05;17.60;;;9.47;;
29500;SDS011;16450;50.288;10.966;2024-03-22T11:39:06;13.63;;;9.20;;
29500;SDS011;16450;50.288;10.966;2024-03-22T11:42:08;15.20;;;9.00;;
29500;SDS011;16450;50.288;10.966;2024-03-22T11:45:10;12.20;;;8.40;;
29500;SDS011;16450;50.288;10.966;2024-03-22T11:48:13;18.33;;;10.07;;
29500;SDS011;16450;50.288;10.966;2024-03-22T11:51:14;15.33;;;9.53;;
29500;SDS011;16450;50.288;10.966;2024-03-22T11:54:15;15.63;;;9.53;;
29500;SDS011;16450;50.288;10.966;2024-03-22T11:57:15;16.17;;;9.53;;
29500;SDS011;16450;50.288;10.966;2024-03-22T12:00:17;15.50;;;9.93;;
29500;SDS011;16450;50.288;10.966;2024-03-22T12:03:18;17.40;;;10.27;;
29500;SDS011;16450;50.288;10.966;2024-03-22T12:06:20;16.33;;;9.80;;
29500;SDS011;16450;50.288;10.966;2024-03-22T12:09:21;15.03;;;9.20;;
29500;SDS011;16450;50.288;10.966;2024-03-22T12:12:22;16.73;;;9.20;;
29500;SDS011;16450;50.288;10.966;2024-03-22T12:15:23;15.93;;;9.43;;
29500;SDS011;16450;50.288;10.966;2024-03-22T12:18:24;13.60;;;7.83;;
29500;SDS011;16450;50.288;10.966;2024-03-22T12:21:25;13.13;;;7.40;;
29500;SDS011;16450;50.288;10.966;2024-03-22T12:24:26;12.40;;;7.20;;
29500;SDS011;16450;50.288;10.966;2024-03-22T12:27:27;14.80;;;8.40;;
29500;SDS011;16450;50.288;10.966;2024-03-22T12:30:28;14.33;;;8.37;;
29500;SDS011;16450;50.288;10.966;2024-03-22T12:33:29;13.70;;;7.80;;
29500;SDS011;16450;50.288;10.966;2024-03-22T12:36:29;15.57;;;7.90;;
29500;SDS011;16450;50.288;10.966;2024-03-22T12:39:30;13.27;;;8.40;;
29500;SDS011;16450;50.288;10.966;2024-03-22T12:42:32;12.50;;;7.60;;
29500;SDS011;16450;50.288;10.966;2024-03-22T12:45:33;12.20;;;6.77;;
29500;SDS011;16450;50.288;10.966;2024-03-22T12:48:34;15.77;;;7.73;;
29500;SDS011;16450;50.288;10.966;2024-03-22T12:51:35;10.43;;;6.43;;
29500;SDS011;16450;50.288;10.966;2024-03-22T12:54:36;10.33;;;6.33;;
29500;SDS011;16450;50.288;10.966;2024-03-22T12:57:37;12.67;;;5.80;;
29500;SDS011;16450;50.288;10.966;2024-03-22T13:00:38;10.23;;;5.30;;
29500;SDS011;16450;50.288;10.966;2024-03-22T13:03:40;12.63;;;6.10;;
29500;SDS011;16450;50.288;10.966;2024-03-22T13:06:41;9.20;;;5.70;;
29500;SDS011;16450;50.288;10.966;2024-03-22T13:09:42;9.77;;;5.60;;
29500;SDS011;16450;50.288;10.966;2024-03-22T13:12:43;8.70;;;5.27;;
29500;SDS011;16450;50.288;10.966;2024-03-22T13:15:44;11.30;;;5.93;;
29500;SDS011;16450;50.288;10.966;2024-03-22T13:18:45;9.27;;;5.77;;
29500;SDS011;16450;50.288;10.966;2024-03-22T13:21:46;9.97;;;6.57;;
29500;SDS011;16450;50.288;10.966;2024-03-22T13:24:48;9.30;;;5.83;;
29500;SDS011;16450;50.288;10.966;2024-03-22T13:27:51;8.80;;;5.43;;
29500;SDS011;16450;50.288;10.966;2024-03-22T13:31:02;7.73;;;5.33;;
29500;SDS011;16450;50.288;10.966;2024-03-22T13:34:03;8.10;;;5.40;;
29500;SDS011;16450;50.288;10.966;2024-03-22T13:37:04;9.10;;;5.47;;
29500;SDS011;16450;50.288;10.966;2024-03-22T13:40:06;9.97;;;4.90;;
29500;SDS011;16450;50.288;10.966;2024-03-22T13:43:08;9.97;;;5.07;;
29500;SDS011;16450;50.288;10.966;2024-03-22T13:46:09;8.47;;;4.87;;
29500;SDS011;16450;50.288;10.966;2024-03-22T13:49:13;7.97;;;4.23;;
29500;SDS011;16450;50.288;10.966;2024-03-22T13:52:20;8.20;;;4.50;;
29500;SDS011;16450;50.288;10.966;2024-03-22T13:55:21;8.30;;;4.57;;
29500;SDS011;16450;50.288;10.966;2024-03-22T13:58:22;7.47;;;3.90;;
29500;SDS011;16450;50.288;10.966;2024-03-22T14:01:23;7.70;;;4.43;;
29500;SDS011;16450;50.288;10.966;2024-03-22T14:04:23;7.30;;;4.67;;
29500;SDS011;16450;50.288;10.966;2024-03-22T14:07:26;6.93;;;4.50;;
29500;SDS011;16450;50.288;10.966;2024-03-22T14:10:27;8.13;;;4.33;;
29500;SDS011;16450;50.288;10.966;2024-03-22T14:13:31;6.53;;;4.20;;
29500;SDS011;16450;50.288;10.966;2024-03-22T14:16:32;5.23;;;3.80;;
29500;SDS011;16450;50.288;10.966;2024-03-22T14:19:33;8.80;;;3.83;;
29500;SDS011;16450;50.288;10.966;2024-03-22T14:22:35;7.03;;;3.80;;
29500;SDS011;16450;50.288;10.966;2024-03-22T14:25:35;7.53;;;3.93;;
29500;SDS011;16450;50.288;10.966;2024-03-22T14:28:36;6.03;;;3.23;;
29500;SDS011;16450;50.288;10.966;2024-03-22T14:31:40;5.77;;;3.00;;
29500;SDS011;16450;50.288;10.966;2024-03-22T14:34:42;5.67;;;3.30;;
29500;SDS011;16450;50.288;10.966;2024-03-22T14:37:43;4.97;;;2.97;;
29500;SDS011;16450;50.288;10.966;2024-03-22T14:40:44;5.33;;;3.00;;
29500;SDS011;16450;50.288;10.966;2024-03-22T14:43:46;5.07;;;2.63;;
29500;SDS011;16450;50.288;10.966;2024-03-22T14:46:47;6.33;;;3.40;;
29500;SDS011;16450;50.288;10.966;2024-03-22T14:49:51;5.50;;;2.80;;
29500;SDS011;16450;50.288;10.966;2024-03-22T14:52:52;3.93;;;2.90;;
29500;SDS011;16450;50.288;10.966;2024-03-22T14:55:53;4.87;;;3.10;;
29500;SDS011;16450;50.288;10.966;2024-03-22T14:59:04;5.00;;;3.13;;
29500;SDS011;16450;50.288;10.966;2024-03-22T15:02:05;6.00;;;3.30;;
29500;SDS011;16450;50.288;10.966;2024-03-22T15:05:07;7.17;;;2.90;;
29500;SDS011;16450;50.288;10.966;2024-03-22T15:08:08;5.83;;;3.20;;
29500;SDS011;16450;50.288;10.966;2024-03-22T15:11:09;4.97;;;3.10;;
29500;SDS011;16450;50.288;10.966;2024-03-22T15:14:10;7.20;;;3.10;;
29500;SDS011;16450;50.288;10.966;2024-03-22T15:17:14;5.27;;;2.50;;
29500;SDS011;16450;50.288;10.966;2024-03-22T15:20:22;6.37;;;2.77;;
29500;SDS011;16450;50.288;10.966;2024-03-22T15:23:23;4.47;;;2.40;;
29500;SDS011;16450;50.288;10.966;2024-03-22T15:26:23;4.43;;;2.43;;
29500;SDS011;16450;50.288;10.966;2024-03-22T15:29:24;3.80;;;2.20;;
29500;SDS011;16450;50.288;10.966;2024-03-22T15:32:25;2.73;;;2.03;;
29500;SDS011;16450;50.288;10.966;2024-03-22T15:35:29;2.97;;;1.80;;
29500;SDS011;16450;50.288;10.966;2024-03-22T15:38:31;6.47;;;1.73;;
29500;SDS011;16450;50.288;10.966;2024-03-22T15:41:31;4.13;;;1.93;;
29500;SDS011;16450;50.288;10.966;2024-03-22T15:44:32;4.83;;;1.87;;
29500;SDS011;16450;50.288;10.966;2024-03-22T15:47:33;2.63;;;1.40;;
29500;SDS011;16450;50.288;10.966;2024-03-22T15:50:34;4.23;;;1.60;;
29500;SDS011;16450;50.288;10.966;2024-03-22T15:53:36;1.83;;;1.33;;
29500;SDS011;16450;50.288;10.966;2024-03-22T15:56:37;3.13;;;1.60;;
29500;SDS011;16450;50.288;10.966;2024-03-22T15:59:38;2.63;;;1.40;;
29500;SDS011;16450;50.288;10.966;2024-03-22T16:02:39;5.43;;;1.60;;
29500;SDS011;16450;50.288;10.966;2024-03-22T16:05:50;2.90;;;1.20;;
29500;SDS011;16450;50.288;10.966;2024-03-22T16:08:51;3.90;;;1.60;;
29500;SDS011;16450;50.288;10.966;2024-03-22T16:11:52;2.40;;;1.57;;
29500;SDS011;16450;50.288;10.966;2024-03-22T16:14:53;5.17;;;2.70;;
29500;SDS011;16450;50.288;10.966;2024-03-22T16:17:54;3.97;;;2.00;;
29500;SDS011;16450;50.288;10.966;2024-03-22T16:20:55;4.37;;;2.40;;
29500;SDS011;16450;50.288;10.966;2024-03-22T16:23:57;5.73;;;2.73;;
29500;SDS011;16450;50.288;10.966;2024-03-22T16:26:58;6.70;;;2.83;;
29500;SDS011;16450;50.288;10.966;2024-03-22T16:29:58;5.53;;;3.07;;
29500;SDS011;16450;50.288;10.966;2024-03-22T16:32:59;6.43;;;3.93;;
29500;SDS011;16450;50.288;10.966;2024-03-22T16:36:00;10.20;;;4.70;;
29500;SDS011;16450;50.288;10.966;2024-03-22T16:39:01;11.40;;;5.87;;
29500;SDS011;16450;50.288;10.966;2024-03-22T16:42:03;14.00;;;5.67;;
29500;SDS011;16450;50.288;10.966;2024-03-22T16:45:04;8.70;;;5.00;;
29500;SDS011;16450;50.288;10.966;2024-03-22T16:48:05;9.57;;;4.60;;
29500;SDS011;16450;50.288;10.966;2024-03-22T16:51:06;7.70;;;5.00;;
29500;SDS011;16450;50.288;10.966;2024-03-22T16:54:07;8.43;;;5.00;;
29500;SDS011;16450;50.288;10.966;2024-03-22T16:57:09;8.83;;;5.30;;
29500;SDS011;16450;50.288;10.966;2024-03-22T17:00:10;13.37;;;6.77;;
29500;SDS011;16450;50.288;10.966;2024-03-22T17:03:11;8.87;;;5.30;;
29500;SDS011;16450;50.288;10.966;2024-03-22T17:06:12;9.10;;;6.37;;
29500;SDS011;16450;50.288;10.966;2024-03-22T17:09:14;9.67;;;5.57;;
29500;SDS011;16450;50.288;10.966;2024-03-22T17:12:14;8.47;;;5.20;;
29500;SDS011;16450;50.288;10.966;2024-03-22T17:15:15;6.97;;;4.30;;
29500;SDS011;16450;50.288;10.966;2024-03-22T17:18:16;10.23;;;4.73;;
29500;SDS011;16450;50.288;10.966;2024-03-22T17:21:18;7.93;;;4.70;;
29500;SDS011;16450;50.288;10.966;2024-03-22T17:24:22;7.33;;;4.43;;
29500;SDS011;16450;50.288;10.966;2024-03-22T17:27:24;11.47;;;4.80;;
29500;SDS011;16450;50.288;10.966;2024-03-22T17:30:25;13.00;;;4.50;;
29500;SDS011;16450;50.288;10.966;2024-03-22T17:33:26;7.43;;;4.50;;
29500;SDS011;16450;50.288;10.966;2024-03-22T17:36:26;10.07;;;5.90;;
29500;SDS011;16450;50.288;10.966;2024-03-22T17:39:27;12.27;;;6.50;;
29500;SDS011;16450;50.288;10.966;2024-03-22T17:42:29;13.37;;;6.97;;
29500;SDS011;16450;50.288;10.966;2024-03-22T17:45:30;11.67;;;6.40;;